Terminal Aerodrome Forecast
Issued by NWS

Home | Current Version | Previous Version | Text Only | Print | Product List | Glossary On
Versions: 1 2 3 4 5 6 7 8 9 10 11 12 13
000
FTUS42 KMLB 211100
TAFSFB
TAF
KSFB 211128Z 2112/2212 VRB03KT P6SM FEW050 FEW250
     FM211400 32005KT P6SM FEW040 FEW250
     FM212100 11008KT P6SM SCT050 SCT250
     FM220100 15004KT P6SM FEW050 SCT250=

USA.gov is the U.S. government's official web portal to all federal, state and local government web resources and services.